Time;durP1;ratioP1;P1;durP2;ratioP2;P2;SDS_P1;SDS_P2;PMS_P1;PMS_P2;Temp;Humidity;BMP_temperature;BMP_pressure;BME280_temperature;BME280_humidity;BME280_pressure;Samples;Min_cycle;Max_cycle;Signal;HPM_P1;HPM_P2
2023/12/26 21:16:21;;;;;;;2.10;1.50;;;;;;;7.96;89.54;98553.69;5074513;27;20802;-71
2023/12/26 21:18:48;;;;;;;1.80;1.70;;;;;;;8.20;88.53;98561.69;5052328;28;20213;-71
2023/12/26 21:21:15;;;;;;;1.88;1.77;;;;;;;8.61;86.55;98575.88;5047493;28;20283;-72
2023/12/26 21:23:42;;;;;;;1.73;1.60;;;;;;;8.51;86.32;98569.00;5030898;28;20647;-72
2023/12/26 21:26:13;;;;;;;1.60;1.50;;;;;;;8.65;86.41;98573.66;5053704;28;20203;-73
2023/12/26 21:28:41;;;;;;;2.08;1.85;;;;;;;8.52;87.25;98571.50;5050973;28;20670;-73
2023/12/26 21:31:08;;;;;;;2.05;1.50;;;;;;;8.45;88.55;98570.53;5069914;28;20652;-72
2023/12/26 21:33:37;;;;;;;2.38;2.08;;;;;;;8.81;87.27;98570.00;5050620;28;20233;-72
2023/12/26 21:36:06;;;;;;;2.50;2.20;;;;;;;8.57;87.98;98574.53;5051240;28;20221;-72
2023/12/26 21:38:33;;;;;;;2.70;2.20;;;;;;;8.39;89.19;98572.09;5050223;28;20254;-72
2023/12/26 21:41:00;;;;;;;2.75;2.28;;;;;;;8.33;90.12;98575.50;5073083;28;20200;-73
2023/12/26 21:43:27;;;;;;;2.38;2.17;;;;;;;8.36;89.89;98582.41;5038504;28;20197;-72
2023/12/26 21:45:53;;;;;;;2.35;2.15;;;;;;;8.62;89.12;98579.41;5054665;28;20210;-72
2023/12/26 21:48:21;;;;;;;2.08;1.98;;;;;;;8.57;89.33;98577.22;5054313;28;20553;-72
2023/12/26 21:50:49;;;;;;;3.15;2.53;;;;;;;8.53;89.33;98584.00;5052686;28;20233;-72
2023/12/26 21:53:15;;;;;;;2.40;2.20;;;;;;;8.61;88.50;98585.81;5055038;28;20207;-72
2023/12/26 21:55:42;;;;;;;5.32;3.22;;;;;;;8.52;88.91;98589.56;5053552;28;20216;-73
2023/12/26 21:58:09;;;;;;;2.97;2.75;;;;;;;8.45;89.91;98585.91;5053619;28;20276;-72
2023/12/26 22:00:35;;;;;;;2.75;2.55;;;;;;;8.46;90.79;98593.78;5064641;28;20565;-72
2023/12/26 22:03:02;;;;;;;4.55;3.70;;;;;;;8.52;90.04;98586.84;5027297;28;20267;-72
2023/12/26 22:05:29;;;;;;;7.47;4.25;;;;;;;8.61;89.02;98586.66;5053321;28;20853;-72
2023/12/26 22:07:57;;;;;;;3.63;2.75;;;;;;;8.66;89.02;98588.84;5054396;28;20219;-72
2023/12/26 22:10:23;;;;;;;4.10;3.80;;;;;;;8.64;88.94;98580.06;5053011;28;20660;-72
2023/12/26 22:12:50;;;;;;;2.80;2.60;;;;;;;8.45;89.54;98586.72;5051052;28;20201;-73
2023/12/26 22:15:16;;;;;;;3.50;3.20;;;;;;;8.50;89.88;98589.72;5027125;28;20306;-73
2023/12/26 22:17:43;;;;;;;3.80;3.50;;;;;;;8.43;90.43;98593.34;5069180;28;20277;-73
2023/12/26 22:20:11;;;;;;;3.30;3.00;;;;;;;8.50;89.73;98600.53;5036043;28;20201;-74
2023/12/26 22:22:39;;;;;;;4.15;3.72;;;;;;;8.59;88.59;98593.25;5038007;28;20979;-73
2023/12/26 22:25:10;;;;;;;4.07;3.13;;;;;;;8.69;88.05;98610.91;5056560;28;20228;-72
2023/12/26 22:27:41;;;;;;;3.33;3.03;;;;;;;8.55;88.58;98614.34;5039365;28;20229;-73
2023/12/26 22:30:09;;;;;;;4.35;3.70;;;;;;;8.58;88.63;98613.97;5039936;28;20711;-73
2023/12/26 22:32:36;;;;;;;4.78;4.13;;;;;;;8.37;89.01;98616.44;5044219;28;20213;-72
2023/12/26 22:35:03;;;;;;;3.67;3.38;;;;;;;8.26;89.61;98614.06;5040067;28;20221;-73
2023/12/26 22:37:30;;;;;;;4.30;3.45;;;;;;;8.41;89.41;98615.09;5019712;28;20263;-72
2023/12/26 22:39:57;;;;;;;3.83;3.53;;;;;;;8.33;89.95;98604.31;5037559;28;21189;-73
2023/12/26 22:42:26;;;;;;;10.00;4.10;;;;;;;8.47;89.23;98592.78;5042626;28;20208;-72
2023/12/26 22:44:54;;;;;;;5.22;3.70;;;;;;;8.31;89.59;98598.22;5041053;28;20193;-72
2023/12/26 22:47:22;;;;;;;7.75;4.25;;;;;;;8.21;89.94;98597.56;5040707;28;20209;-71
2023/12/26 22:49:49;;;;;;;5.97;3.65;;;;;;;8.21;89.85;98602.97;5042819;28;20655;-72
2023/12/26 22:52:16;;;;;;;5.03;4.47;;;;;;;8.27;89.80;98600.41;5043621;28;20202;-73
2023/12/26 22:54:42;;;;;;;5.78;4.20;;;;;;;8.00;90.43;98590.91;5040550;28;20234;-72
2023/12/26 22:57:09;;;;;;;5.35;4.65;;;;;;;8.14;90.91;98593.88;5031071;28;20212;-73
2023/12/26 22:59:37;;;;;;;4.30;3.90;;;;;;;8.18;91.00;98596.06;5039490;28;20206;-73
2023/12/26 23:02:04;;;;;;;5.40;4.05;;;;;;;8.09;90.95;98591.72;5040408;28;20202;-73
2023/12/26 23:04:31;;;;;;;4.43;3.45;;;;;;;8.06;90.56;98592.91;5041716;28;20210;-72
2023/12/26 23:07:00;;;;;;;6.43;3.65;;;;;;;8.29;89.34;98592.16;5040026;28;20205;-73
2023/12/26 23:09:27;;;;;;;6.88;4.18;;;;;;;8.40;88.91;98597.22;5023962;28;20206;-73
2023/12/26 23:11:55;;;;;;;4.15;3.75;;;;;;;8.27;88.93;98594.19;5022438;28;20213;-73
2023/12/26 23:14:23;;;;;;;4.85;3.53;;;;;;;8.40;88.38;98597.22;5024263;28;20225;-73
2023/12/26 23:16:51;;;;;;;4.43;3.70;;;;;;;8.58;87.55;98600.50;5038282;28;20648;-73
2023/12/26 23:19:17;;;;;;;4.93;3.50;;;;;;;8.27;88.62;98594.19;5039738;28;20206;-73
2023/12/26 23:21:44;;;;;;;4.28;3.50;;;;;;;8.46;87.72;98611.84;5041312;28;20284;-73
2023/12/26 23:24:11;;;;;;;3.90;3.50;;;;;;;8.56;86.97;98607.91;5040030;28;20201;-73
2023/12/26 23:26:37;;;;;;;3.80;3.50;;;;;;;8.47;86.86;98606.25;5020902;28;20194;-72
2023/12/26 23:29:05;;;;;;;3.70;3.40;;;;;;;8.63;86.05;98608.91;5035311;28;20221;-72
2023/12/26 23:31:32;;;;;;;4.78;3.00;;;;;;;8.53;86.20;98604.72;5038057;28;20194;-73
2023/12/26 23:34:00;;;;;;;5.20;3.58;;;;;;;8.35;86.63;98605.81;5038380;28;20240;-73
2023/12/26 23:36:27;;;;;;;3.45;3.15;;;;;;;8.40;86.40;98608.84;5039055;28;20501;-72
2023/12/26 23:38:54;;;;;;;3.17;2.80;;;;;;;8.41;85.79;98607.00;5034463;28;20224;-72
2023/12/26 23:41:20;;;;;;;3.67;2.85;;;;;;;8.38;85.71;98610.88;5040275;28;20288;-72
2023/12/26 23:43:47;;;;;;;3.92;3.42;;;;;;;8.54;86.08;98606.41;5041831;28;20204;-73
2023/12/26 23:46:13;;;;;;;3.80;3.00;;;;;;;8.53;85.89;98607.44;5040620;28;20216;-73
2023/12/26 23:48:43;;;;;;;3.67;2.72;;;;;;;8.50;84.43;98605.91;5039693;28;20205;-72
2023/12/26 23:51:11;;;;;;;4.57;2.75;;;;;;;8.77;84.14;98606.50;5022424;28;20762;-72
2023/12/26 23:53:38;;;;;;;3.15;2.90;;;;;;;8.73;84.97;98609.53;5041564;28;20210;-73
2023/12/26 23:56:07;;;;;;;3.05;2.83;;;;;;;8.77;84.23;98614.59;5037683;28;20303;-74
2023/12/26 23:58:33;;;;;;;4.15;2.97;;;;;;;8.71;84.71;98622.38;5036683;28;20211;-73
